sensor_id;sensor_type;location;lat;lon;timestamp;pressure;altitude;pressure_sealevel;temperature;humidity
8101;BME280;4093;53.470;9.832;2023-01-29T00:01:28;102610.59;;;5.34;93.79
8101;BME280;4093;53.470;9.832;2023-01-29T00:03:56;102616.31;;;5.02;95.74
8101;BME280;4093;53.470;9.832;2023-01-29T00:06:24;102611.81;;;4.96;95.38
8101;BME280;4093;53.470;9.832;2023-01-29T00:08:53;102621.88;;;5.14;95.30
8101;BME280;4093;53.470;9.832;2023-01-29T00:11:20;102621.63;;;5.32;94.08
8101;BME280;4093;53.470;9.832;2023-01-29T00:13:49;102618.97;;;5.54;94.40
8101;BME280;4093;53.470;9.832;2023-01-29T00:16:17;102609.81;;;5.61;93.37
8101;BME280;4093;53.470;9.832;2023-01-29T00:18:45;102598.84;;;5.41;93.58
8101;BME280;4093;53.470;9.832;2023-01-29T00:21:14;102598.94;;;5.44;93.23
8101;BME280;4093;53.470;9.832;2023-01-29T00:27:07;102589.66;;;5.22;94.93
8101;BME280;4093;53.470;9.832;2023-01-29T00:29:36;102589.56;;;5.45;93.56
8101;BME280;4093;53.470;9.832;2023-01-29T00:32:04;102576.72;;;5.45;93.19
8101;BME280;4093;53.470;9.832;2023-01-29T00:34:31;102567.00;;;5.34;93.24
8101;BME280;4093;53.470;9.832;2023-01-29T00:36:59;102558.94;;;5.49;92.77
8101;BME280;4093;53.470;9.832;2023-01-29T00:39:34;102550.28;;;5.20;94.34
8101;BME280;4093;53.470;9.832;2023-01-29T00:42:14;102548.13;;;5.58;93.08
8101;BME280;4093;53.470;9.832;2023-01-29T00:44:59;102538.72;;;5.07;94.90
8101;BME280;4093;53.470;9.832;2023-01-29T00:47:27;102554.06;;;5.31;94.37
8101;BME280;4093;53.470;9.832;2023-01-29T00:49:59;102550.28;;;5.20;94.27
8101;BME280;4093;53.470;9.832;2023-01-29T00:52:27;102562.06;;;5.41;94.16
8101;BME280;4093;53.470;9.832;2023-01-29T00:54:56;102545.16;;;5.20;94.05
8101;BME280;4093;53.470;9.832;2023-01-29T00:57:28;102554.31;;;5.65;92.40
8101;BME280;4093;53.470;9.832;2023-01-29T00:59:56;102558.28;;;5.55;93.13
8101;BME280;4093;53.470;9.832;2023-01-29T01:02:24;102572.47;;;5.71;92.40
8101;BME280;4093;53.470;9.832;2023-01-29T01:05:10;102565.56;;;5.68;92.66
8101;BME280;4093;53.470;9.832;2023-01-29T01:07:44;102568.69;;;6.14;90.41
8101;BME280;4093;53.470;9.832;2023-01-29T01:10:13;102565.72;;;6.00;90.34
8101;BME280;4093;53.470;9.832;2023-01-29T01:12:49;102565.19;;;5.83;91.41
8101;BME280;4093;53.470;9.832;2023-01-29T01:15:17;102567.41;;;5.99;90.52
8101;BME280;4093;53.470;9.832;2023-01-29T01:17:45;102556.69;;;5.59;92.33
8101;BME280;4093;53.470;9.832;2023-01-29T01:20:14;102567.44;;;5.74;92.21
8101;BME280;4093;53.470;9.832;2023-01-29T01:22:42;102550.63;;;5.56;92.92
8101;BME280;4093;53.470;9.832;2023-01-29T01:25:10;102555.66;;;5.53;93.06
8101;BME280;4093;53.470;9.832;2023-01-29T01:27:37;102565.66;;;5.71;93.00
8101;BME280;4093;53.470;9.832;2023-01-29T01:30:11;102562.06;;;5.66;93.13
8101;BME280;4093;53.470;9.832;2023-01-29T01:32:41;102562.84;;;5.91;92.33
8101;BME280;4093;53.470;9.832;2023-01-29T01:35:10;102575.13;;;6.28;91.09
8101;BME280;4093;53.470;9.832;2023-01-29T01:37:39;102559.44;;;5.92;91.58
8101;BME280;4093;53.470;9.832;2023-01-29T01:40:10;102554.19;;;5.89;92.42
8101;BME280;4093;53.470;9.832;2023-01-29T01:42:44;102563.72;;;6.18;91.35
8101;BME280;4093;53.470;9.832;2023-01-29T01:45:20;102565.94;;;6.08;91.50
8101;BME280;4093;53.470;9.832;2023-01-29T01:47:51;102551.88;;;5.69;93.57
8101;BME280;4093;53.470;9.832;2023-01-29T01:50:23;102552.78;;;5.97;91.60
8101;BME280;4093;53.470;9.832;2023-01-29T01:52:57;102563.16;;;6.00;91.93
8101;BME280;4093;53.470;9.832;2023-01-29T01:55:27;102566.69;;;6.32;90.97
8101;BME280;4093;53.470;9.832;2023-01-29T01:58:00;102559.41;;;6.17;90.69
8101;BME280;4093;53.470;9.832;2023-01-29T02:00:30;102557.22;;;5.75;92.81
8101;BME280;4093;53.470;9.832;2023-01-29T02:02:58;102549.38;;;5.98;92.96
8101;BME280;4093;53.470;9.832;2023-01-29T02:05:45;102554.31;;;6.19;92.05
8101;BME280;4093;53.470;9.832;2023-01-29T02:08:36;102549.47;;;6.01;92.21
8101;BME280;4093;53.470;9.832;2023-01-29T02:11:23;102550.63;;;5.84;92.85
8101;BME280;4093;53.470;9.832;2023-01-29T02:13:51;102543.13;;;5.90;92.89
8101;BME280;4093;53.470;9.832;2023-01-29T02:16:22;102542.38;;;5.67;94.09
8101;BME280;4093;53.470;9.832;2023-01-29T02:18:50;102534.25;;;5.53;94.34
8101;BME280;4093;53.470;9.832;2023-01-29T02:21:40;102547.66;;;5.97;93.15
8101;BME280;4093;53.470;9.832;2023-01-29T02:24:43;102537.22;;;5.65;94.44
8101;BME280;4093;53.470;9.832;2023-01-29T02:27:21;102537.06;;;5.88;93.96
8101;BME280;4093;53.470;9.832;2023-01-29T02:30:02;102527.88;;;5.67;93.94
8101;BME280;4093;53.470;9.832;2023-01-29T02:32:39;102528.59;;;5.63;94.39
8101;BME280;4093;53.470;9.832;2023-01-29T02:35:28;102522.81;;;5.96;93.19
8101;BME280;4093;53.470;9.832;2023-01-29T02:38:06;102530.19;;;5.60;94.81
8101;BME280;4093;53.470;9.832;2023-01-29T02:40:41;102533.41;;;6.07;93.00
8101;BME280;4093;53.470;9.832;2023-01-29T02:43:18;102532.53;;;6.06;92.76
8101;BME280;4093;53.470;9.832;2023-01-29T02:45:55;102518.78;;;5.50;94.92
8101;BME280;4093;53.470;9.832;2023-01-29T02:48:33;102513.38;;;5.68;94.56
8101;BME280;4093;53.470;9.832;2023-01-29T02:51:09;102523.22;;;5.83;94.08
8101;BME280;4093;53.470;9.832;2023-01-29T02:53:46;102508.00;;;5.89;94.01
8101;BME280;4093;53.470;9.832;2023-01-29T02:56:20;102505.22;;;6.08;92.74
8101;BME280;4093;53.470;9.832;2023-01-29T02:58:54;102504.56;;;5.88;93.97
8101;BME280;4093;53.470;9.832;2023-01-29T03:01:29;102490.56;;;5.50;94.97
8101;BME280;4093;53.470;9.832;2023-01-29T03:04:03;102489.25;;;5.63;94.15
8101;BME280;4093;53.470;9.832;2023-01-29T03:06:36;102485.41;;;5.50;96.00
8101;BME280;4093;53.470;9.832;2023-01-29T03:09:09;102479.72;;;5.59;95.83
8101;BME280;4093;53.470;9.832;2023-01-29T03:11:40;102479.34;;;5.48;95.91
8101;BME280;4093;53.470;9.832;2023-01-29T03:14:11;102464.84;;;5.48;95.20
8101;BME280;4093;53.470;9.832;2023-01-29T03:16:45;102463.50;;;5.60;95.03
8101;BME280;4093;53.470;9.832;2023-01-29T03:19:17;102455.66;;;5.55;94.67
8101;BME280;4093;53.470;9.832;2023-01-29T03:21:49;102463.69;;;5.39;96.21
8101;BME280;4093;53.470;9.832;2023-01-29T03:24:31;102466.47;;;5.73;95.01
8101;BME280;4093;53.470;9.832;2023-01-29T03:27:20;102459.03;;;5.01;97.24
8101;BME280;4093;53.470;9.832;2023-01-29T03:30:09;102465.97;;;5.85;95.23
8101;BME280;4093;53.470;9.832;2023-01-29T03:32:58;102458.25;;;5.56;95.08
8101;BME280;4093;53.470;9.832;2023-01-29T03:35:28;102447.16;;;5.57;95.17
8101;BME280;4093;53.470;9.832;2023-01-29T03:38:01;102454.09;;;5.60;94.46
8101;BME280;4093;53.470;9.832;2023-01-29T03:40:35;102397.41;;;5.24;94.31
8101;BME280;4093;53.470;9.832;2023-01-29T03:43:09;102443.31;;;5.43;95.31
8101;BME280;4093;53.470;9.832;2023-01-29T03:45:45;102445.59;;;5.61;94.59
8101;BME280;4093;53.470;9.832;2023-01-29T03:48:27;102448.09;;;5.32;95.74
8101;BME280;4093;53.470;9.832;2023-01-29T03:51:04;102449.31;;;5.44;95.66
8101;BME280;4093;53.470;9.832;2023-01-29T03:53:42;102450.28;;;5.47;95.65
8101;BME280;4093;53.470;9.832;2023-01-29T03:56:20;102455.47;;;5.49;95.54
8101;BME280;4093;53.470;9.832;2023-01-29T03:58:54;102446.75;;;5.44;95.64
8101;BME280;4093;53.470;9.832;2023-01-29T04:01:26;102452.56;;;5.67;94.99
8101;BME280;4093;53.470;9.832;2023-01-29T04:04:01;102442.84;;;5.84;93.93
8101;BME280;4093;53.470;9.832;2023-01-29T04:06:35;102414.44;;;5.22;95.57
8101;BME280;4093;53.470;9.832;2023-01-29T04:09:09;102438.50;;;5.54;95.39
8101;BME280;4093;53.470;9.832;2023-01-29T04:11:42;102441.94;;;5.54;95.16
8101;BME280;4093;53.470;9.832;2023-01-29T04:14:12;102434.16;;;5.51;95.40
8101;BME280;4093;53.470;9.832;2023-01-29T04:16:44;102433.09;;;6.00;93.59
8101;BME280;4093;53.470;9.832;2023-01-29T04:19:16;102421.38;;;5.53;94.20
8101;BME280;4093;53.470;9.832;2023-01-29T04:21:44;102411.78;;;5.76;94.33
8101;BME280;4093;53.470;9.832;2023-01-29T04:24:16;102416.34;;;5.56;94.68
8101;BME280;4093;53.470;9.832;2023-01-29T04:26:59;102410.63;;;5.36;95.15
8101;BME280;4093;53.470;9.832;2023-01-29T04:29:42;102411.31;;;5.32;95.92
8101;BME280;4093;53.470;9.832;2023-01-29T04:32:17;102423.50;;;5.66;94.39
8101;BME280;4093;53.470;9.832;2023-01-29T04:34:59;102418.41;;;5.39;95.62
8101;BME280;4093;53.470;9.832;2023-01-29T04:37:35;102416.19;;;5.51;94.34
8101;BME280;4093;53.470;9.832;2023-01-29T04:40:13;102414.25;;;5.43;95.53
8101;BME280;4093;53.470;9.832;2023-01-29T04:42:49;102426.97;;;5.68;94.31
8101;BME280;4093;53.470;9.832;2023-01-29T04:45:27;102425.88;;;5.60;94.49
8101;BME280;4093;53.470;9.832;2023-01-29T04:48:04;102435.13;;;5.84;93.06
8101;BME280;4093;53.470;9.832;2023-01-29T04:50:40;102425.97;;;5.63;93.41
8101;BME280;4093;53.470;9.832;2023-01-29T04:53:14;102442.41;;;5.70;94.00
8101;BME280;4093;53.470;9.832;2023-01-29T04:55:48;102446.56;;;5.38;94.09
8101;BME280;4093;53.470;9.832;2023-01-29T04:58:24;102436.56;;;5.45;94.50
8101;BME280;4093;53.470;9.832;2023-01-29T05:00:53;102438.59;;;5.86;92.86
8101;BME280;4093;53.470;9.832;2023-01-29T05:03:24;102440.19;;;6.09;91.83
8101;BME280;4093;53.470;9.832;2023-01-29T05:05:55;102431.16;;;5.65;92.93
8101;BME280;4093;53.470;9.832;2023-01-29T05:08:26;102430.44;;;5.42;94.02
8101;BME280;4093;53.470;9.832;2023-01-29T05:10:56;102423.56;;;5.41;93.84
8101;BME280;4093;53.470;9.832;2023-01-29T05:13:24;102408.44;;;5.21;94.29
8101;BME280;4093;53.470;9.832;2023-01-29T05:15:56;102392.50;;;5.60;92.76
8101;BME280;4093;53.470;9.832;2023-01-29T05:18:26;102405.41;;;5.34;95.19
8101;BME280;4093;53.470;9.832;2023-01-29T05:20:59;102374.25;;;5.49;93.53
8101;BME280;4093;53.470;9.832;2023-01-29T05:23:29;102375.94;;;5.49;93.28
8101;BME280;4093;53.470;9.832;2023-01-29T05:25:57;102384.78;;;5.30;94.75
8101;BME280;4093;53.470;9.832;2023-01-29T05:28:25;102391.94;;;5.40;94.30
8101;BME280;4093;53.470;9.832;2023-01-29T05:30:53;102390.72;;;5.57;94.13
8101;BME280;4093;53.470;9.832;2023-01-29T05:33:23;102399.84;;;5.48;93.84
8101;BME280;4093;53.470;9.832;2023-01-29T05:35:51;102400.94;;;5.85;92.30
8101;BME280;4093;53.470;9.832;2023-01-29T05:38:20;102407.03;;;5.88;91.41
8101;BME280;4093;53.470;9.832;2023-01-29T05:40:48;102393.78;;;6.03;90.46
8101;BME280;4093;53.470;9.832;2023-01-29T05:43:17;102386.53;;;6.18;90.59
8101;BME280;4093;53.470;9.832;2023-01-29T05:45:51;102386.97;;;6.03;90.65
8101;BME280;4093;53.470;9.832;2023-01-29T05:48:19;102370.13;;;5.85;91.11
8101;BME280;4093;53.470;9.832;2023-01-29T05:50:47;102368.53;;;5.58;91.67
8101;BME280;4093;53.470;9.832;2023-01-29T05:53:15;102365.41;;;5.68;90.98
8101;BME280;4093;53.470;9.832;2023-01-29T05:55:44;102390.38;;;6.04;89.51
8101;BME280;4093;53.470;9.832;2023-01-29T05:58:12;102391.47;;;5.53;90.98
8101;BME280;4093;53.470;9.832;2023-01-29T06:00:40;102392.09;;;5.75;91.32
8101;BME280;4093;53.470;9.832;2023-01-29T06:03:08;102391.97;;;5.42;91.62
8101;BME280;4093;53.470;9.832;2023-01-29T06:05:36;102397.44;;;5.52;91.55
8101;BME280;4093;53.470;9.832;2023-01-29T06:08:05;102394.00;;;5.52;91.81
8101;BME280;4093;53.470;9.832;2023-01-29T06:10:33;102391.72;;;5.61;91.94
8101;BME280;4093;53.470;9.832;2023-01-29T06:13:02;102385.44;;;5.24;93.16
8101;BME280;4093;53.470;9.832;2023-01-29T06:15:30;102377.59;;;5.20;93.02
8101;BME280;4093;53.470;9.832;2023-01-29T06:17:57;102375.06;;;4.93;93.72
8101;BME280;4093;53.470;9.832;2023-01-29T06:20:25;102387.19;;;5.25;93.47
8101;BME280;4093;53.470;9.832;2023-01-29T06:22:53;102346.56;;;4.83;93.73
8101;BME280;4093;53.470;9.832;2023-01-29T06:25:20;102353.69;;;4.92;94.06
8101;BME280;4093;53.470;9.832;2023-01-29T06:27:49;102359.97;;;5.02;94.09
8101;BME280;4093;53.470;9.832;2023-01-29T06:30:18;102353.53;;;4.87;93.97
8101;BME280;4093;53.470;9.832;2023-01-29T06:32:46;102358.41;;;5.07;93.40
8101;BME280;4093;53.470;9.832;2023-01-29T06:35:13;102367.41;;;4.94;93.88
8101;BME280;4093;53.470;9.832;2023-01-29T06:37:41;102363.34;;;4.74;94.73
8101;BME280;4093;53.470;9.832;2023-01-29T06:40:10;102340.56;;;4.57;94.93
8101;BME280;4093;53.470;9.832;2023-01-29T06:42:38;102350.72;;;4.54;95.78
8101;BME280;4093;53.470;9.832;2023-01-29T06:45:06;102331.63;;;4.70;95.10
8101;BME280;4093;53.470;9.832;2023-01-29T06:47:35;102319.91;;;4.51;95.50
8101;BME280;4093;53.470;9.832;2023-01-29T06:50:03;102322.16;;;4.42;96.25
8101;BME280;4093;53.470;9.832;2023-01-29T06:52:31;102301.03;;;3.98;97.12
8101;BME280;4093;53.470;9.832;2023-01-29T06:54:59;102328.84;;;4.13;98.66
8101;BME280;4093;53.470;9.832;2023-01-29T06:57:28;102322.03;;;4.13;96.72
8101;BME280;4093;53.470;9.832;2023-01-29T06:59:56;102326.97;;;4.33;96.38
8101;BME280;4093;53.470;9.832;2023-01-29T07:02:23;102322.91;;;4.65;95.26
8101;BME280;4093;53.470;9.832;2023-01-29T07:04:52;102325.47;;;4.65;94.94
8101;BME280;4093;53.470;9.832;2023-01-29T07:07:20;102313.88;;;4.24;95.68
8101;BME280;4093;53.470;9.832;2023-01-29T07:09:48;102321.47;;;4.48;95.38
8101;BME280;4093;53.470;9.832;2023-01-29T07:12:15;102310.22;;;4.17;95.77
8101;BME280;4093;53.470;9.832;2023-01-29T07:14:43;102325.91;;;4.02;97.36
8101;BME280;4093;53.470;9.832;2023-01-29T07:17:10;102327.31;;;4.44;96.11
8101;BME280;4093;53.470;9.832;2023-01-29T07:19:38;102331.66;;;4.72;94.60
8101;BME280;4093;53.470;9.832;2023-01-29T07:22:07;102301.81;;;4.47;93.99
8101;BME280;4093;53.470;9.832;2023-01-29T07:24:35;102321.38;;;4.70;93.45
8101;BME280;4093;53.470;9.832;2023-01-29T07:27:02;102327.88;;;4.86;92.56
8101;BME280;4093;53.470;9.832;2023-01-29T07:29:30;102330.63;;;4.92;92.46
8101;BME280;4093;53.470;9.832;2023-01-29T07:31:57;102334.34;;;5.02;92.46
8101;BME280;4093;53.470;9.832;2023-01-29T07:34:25;102333.47;;;4.74;92.99
8101;BME280;4093;53.470;9.832;2023-01-29T07:36:53;102336.56;;;4.64;93.28
8101;BME280;4093;53.470;9.832;2023-01-29T07:39:23;102321.97;;;4.63;93.02
8101;BME280;4093;53.470;9.832;2023-01-29T07:41:51;102327.59;;;4.78;92.79
8101;BME280;4093;53.470;9.832;2023-01-29T07:44:18;102321.56;;;4.76;92.15
8101;BME280;4093;53.470;9.832;2023-01-29T07:46:46;102318.00;;;4.46;93.90
8101;BME280;4093;53.470;9.832;2023-01-29T07:49:14;102310.63;;;4.55;93.37
8101;BME280;4093;53.470;9.832;2023-01-29T07:51:41;102307.28;;;4.57;93.17
8101;BME280;4093;53.470;9.832;2023-01-29T07:54:09;102305.81;;;4.64;93.19
8101;BME280;4093;53.470;9.832;2023-01-29T07:56:38;102295.28;;;4.55;93.84
8101;BME280;4093;53.470;9.832;2023-01-29T07:59:06;102286.66;;;4.53;93.65
8101;BME280;4093;53.470;9.832;2023-01-29T08:01:33;102297.09;;;4.59;93.11
8101;BME280;4093;53.470;9.832;2023-01-29T08:04:01;102305.59;;;4.32;95.14
8101;BME280;4093;53.470;9.832;2023-01-29T08:06:29;102303.63;;;4.24;94.97
8101;BME280;4093;53.470;9.832;2023-01-29T08:08:56;102300.28;;;4.52;95.09
8101;BME280;4093;53.470;9.832;2023-01-29T08:11:25;102289.69;;;4.41;95.35
8101;BME280;4093;53.470;9.832;2023-01-29T08:13:54;102307.94;;;4.77;94.88
8101;BME280;4093;53.470;9.832;2023-01-29T08:16:22;102299.78;;;4.89;94.73
8101;BME280;4093;53.470;9.832;2023-01-29T08:18:50;102293.06;;;5.21;93.71
8101;BME280;4093;53.470;9.832;2023-01-29T08:21:17;102286.50;;;5.31;91.76
8101;BME280;4093;53.470;9.832;2023-01-29T08:23:47;102284.88;;;4.77;94.19
8101;BME280;4093;53.470;9.832;2023-01-29T08:26:15;102286.34;;;4.98;94.87
8101;BME280;4093;53.470;9.832;2023-01-29T08:28:43;102282.31;;;4.77;94.90
8101;BME280;4093;53.470;9.832;2023-01-29T08:31:15;102288.78;;;5.22;94.59
8101;BME280;4093;53.470;9.832;2023-01-29T08:33:46;102289.09;;;5.04;95.99
8101;BME280;4093;53.470;9.832;2023-01-29T08:36:13;102289.66;;;5.22;94.57
8101;BME280;4093;53.470;9.832;2023-01-29T08:38:41;102287.69;;;5.42;94.71
8101;BME280;4093;53.470;9.832;2023-01-29T08:41:09;102278.44;;;5.19;94.93
8101;BME280;4093;53.470;9.832;2023-01-29T08:43:36;102268.84;;;4.83;95.95
8101;BME280;4093;53.470;9.832;2023-01-29T08:46:04;102263.31;;;4.71;96.49
8101;BME280;4093;53.470;9.832;2023-01-29T08:48:34;102268.25;;;5.20;95.76
8101;BME280;4093;53.470;9.832;2023-01-29T08:51:02;102279.59;;;5.28;95.69
8101;BME280;4093;53.470;9.832;2023-01-29T08:53:30;102271.91;;;5.00;96.51
8101;BME280;4093;53.470;9.832;2023-01-29T08:55:58;102271.41;;;5.12;96.31
8101;BME280;4093;53.470;9.832;2023-01-29T08:58:26;102262.00;;;5.41;95.16
8101;BME280;4093;53.470;9.832;2023-01-29T09:00:53;102265.81;;;5.55;94.76
8101;BME280;4093;53.470;9.832;2023-01-29T09:03:21;102270.13;;;5.56;95.30
8101;BME280;4093;53.470;9.832;2023-01-29T09:05:50;102269.78;;;6.06;93.66
8101;BME280;4093;53.470;9.832;2023-01-29T09:08:18;102264.63;;;5.42;94.56
8101;BME280;4093;53.470;9.832;2023-01-29T09:10:45;102284.34;;;5.76;94.33
8101;BME280;4093;53.470;9.832;2023-01-29T09:13:13;102277.41;;;5.72;95.43
8101;BME280;4093;53.470;9.832;2023-01-29T09:15:41;102266.44;;;5.48;94.67
8101;BME280;4093;53.470;9.832;2023-01-29T09:18:08;102277.91;;;5.91;94.29
8101;BME280;4093;53.470;9.832;2023-01-29T09:20:36;102285.59;;;5.91;94.48
8101;BME280;4093;53.470;9.832;2023-01-29T09:23:06;102274.91;;;5.75;94.89
8101;BME280;4093;53.470;9.832;2023-01-29T09:25:35;102240.88;;;5.49;94.57
8101;BME280;4093;53.470;9.832;2023-01-29T09:28:04;102281.44;;;5.94;95.21
8101;BME280;4093;53.470;9.832;2023-01-29T09:30:32;102275.78;;;6.06;94.30
8101;BME280;4093;53.470;9.832;2023-01-29T09:33:03;102267.38;;;5.82;95.30
8101;BME280;4093;53.470;9.832;2023-01-29T09:35:31;102265.00;;;5.88;95.57
8101;BME280;4093;53.470;9.832;2023-01-29T09:37:59;102251.28;;;5.55;96.16
8101;BME280;4093;53.470;9.832;2023-01-29T09:40:34;102255.50;;;5.53;97.62
8101;BME280;4093;53.470;9.832;2023-01-29T09:43:05;102251.03;;;5.46;97.07
8101;BME280;4093;53.470;9.832;2023-01-29T09:45:35;102252.97;;;6.18;95.57
8101;BME280;4093;53.470;9.832;2023-01-29T09:48:03;102256.66;;;5.95;95.26
8101;BME280;4093;53.470;9.832;2023-01-29T09:50:35;102250.03;;;6.03;94.83
8101;BME280;4093;53.470;9.832;2023-01-29T09:53:09;102243.88;;;5.98;95.65
8101;BME280;4093;53.470;9.832;2023-01-29T09:55:44;102243.81;;;5.95;96.08
8101;BME280;4093;53.470;9.832;2023-01-29T09:58:17;102227.25;;;6.17;95.93
8101;BME280;4093;53.470;9.832;2023-01-29T10:00:50;102189.31;;;5.73;94.93
8101;BME280;4093;53.470;9.832;2023-01-29T10:03:32;102230.97;;;6.30;94.82
8101;BME280;4093;53.470;9.832;2023-01-29T10:06:18;102225.13;;;6.00;96.29
8101;BME280;4093;53.470;9.832;2023-01-29T10:09:07;102210.06;;;5.81;96.70
8101;BME280;4093;53.470;9.832;2023-01-29T10:11:48;102204.94;;;5.83;97.93
8101;BME280;4093;53.470;9.832;2023-01-29T10:14:29;102193.81;;;5.49;98.98
8101;BME280;4093;53.470;9.832;2023-01-29T10:17:15;102196.72;;;5.61;98.35
8101;BME280;4093;53.470;9.832;2023-01-29T10:20:02;102200.78;;;6.19;97.43
8101;BME280;4093;53.470;9.832;2023-01-29T10:22:52;102194.06;;;5.91;97.52
8101;BME280;4093;53.470;9.832;2023-01-29T10:25:25;102197.03;;;6.05;97.21
8101;BME280;4093;53.470;9.832;2023-01-29T10:27:57;102176.66;;;5.79;97.27
8101;BME280;4093;53.470;9.832;2023-01-29T10:30:30;102184.66;;;6.61;95.90
8101;BME280;4093;53.470;9.832;2023-01-29T10:33:02;102178.59;;;6.23;95.17
8101;BME280;4093;53.470;9.832;2023-01-29T10:35:32;102187.78;;;6.12;96.31
8101;BME280;4093;53.470;9.832;2023-01-29T10:38:17;102177.22;;;6.01;97.40
8101;BME280;4093;53.470;9.832;2023-01-29T10:40:52;102164.31;;;6.34;95.50
8101;BME280;4093;53.470;9.832;2023-01-29T10:43:29;102165.41;;;6.08;97.08
8101;BME280;4093;53.470;9.832;2023-01-29T10:46:09;102158.81;;;6.55;95.92
8101;BME280;4093;53.470;9.832;2023-01-29T10:48:48;102153.38;;;6.81;93.52
8101;BME280;4093;53.470;9.832;2023-01-29T10:51:30;102138.06;;;6.46;93.65
8101;BME280;4093;53.470;9.832;2023-01-29T10:54:12;102142.63;;;6.59;94.06
8101;BME280;4093;53.470;9.832;2023-01-29T10:56:51;102120.53;;;6.28;95.24
8101;BME280;4093;53.470;9.832;2023-01-29T10:59:42;102126.81;;;6.41;95.17
8101;BME280;4093;53.470;9.832;2023-01-29T11:02:17;102129.84;;;6.62;93.56
8101;BME280;4093;53.470;9.832;2023-01-29T11:04:47;102132.22;;;6.53;93.79
8101;BME280;4093;53.470;9.832;2023-01-29T11:07:17;102129.94;;;6.29;93.92
8101;BME280;4093;53.470;9.832;2023-01-29T11:09:51;102122.88;;;6.19;94.79
8101;BME280;4093;53.470;9.832;2023-01-29T11:12:22;102121.81;;;6.09;94.98
8101;BME280;4093;53.470;9.832;2023-01-29T11:15:00;102116.03;;;5.85;95.44
8101;BME280;4093;53.470;9.832;2023-01-29T11:17:31;102120.78;;;6.02;95.99
8101;BME280;4093;53.470;9.832;2023-01-29T11:19:58;102125.81;;;5.98;95.65
8101;BME280;4093;53.470;9.832;2023-01-29T11:22:27;102140.63;;;6.46;94.06
8101;BME280;4093;53.470;9.832;2023-01-29T11:25:09;102092.03;;;6.17;93.35
8101;BME280;4093;53.470;9.832;2023-01-29T11:27:44;102118.09;;;6.36;93.11
8101;BME280;4093;53.470;9.832;2023-01-29T11:30:25;102115.22;;;6.60;92.62
8101;BME280;4093;53.470;9.832;2023-01-29T11:33:04;102108.47;;;6.24;93.45
8101;BME280;4093;53.470;9.832;2023-01-29T11:35:33;102053.25;;;6.05;93.94
8101;BME280;4093;53.470;9.832;2023-01-29T11:38:07;102099.56;;;6.10;93.69
8101;BME280;4093;53.470;9.832;2023-01-29T11:40:39;102088.91;;;6.31;94.06
8101;BME280;4093;53.470;9.832;2023-01-29T11:43:18;102081.13;;;6.68;92.46
8101;BME280;4093;53.470;9.832;2023-01-29T11:45:49;102082.13;;;6.77;91.26
8101;BME280;4093;53.470;9.832;2023-01-29T11:48:19;102058.91;;;6.30;93.43
8101;BME280;4093;53.470;9.832;2023-01-29T11:50:52;102065.00;;;6.35;92.98
8101;BME280;4093;53.470;9.832;2023-01-29T11:53:25;102066.84;;;6.40;92.68
8101;BME280;4093;53.470;9.832;2023-01-29T11:55:54;102062.38;;;6.72;91.56
8101;BME280;4093;53.470;9.832;2023-01-29T11:58:26;102053.63;;;6.23;93.23
8101;BME280;4093;53.470;9.832;2023-01-29T12:00:57;102053.66;;;6.66;91.60
8101;BME280;4093;53.470;9.832;2023-01-29T12:03:31;102053.41;;;6.11;92.72
8101;BME280;4093;53.470;9.832;2023-01-29T12:06:03;102045.25;;;6.31;92.82
8101;BME280;4093;53.470;9.832;2023-01-29T12:08:35;102043.81;;;6.45;91.64
8101;BME280;4093;53.470;9.832;2023-01-29T12:11:09;102047.69;;;5.88;93.68
8101;BME280;4093;53.470;9.832;2023-01-29T12:13:38;102044.06;;;6.57;92.39
8101;BME280;4093;53.470;9.832;2023-01-29T12:16:18;101974.28;;;5.95;92.20
8101;BME280;4093;53.470;9.832;2023-01-29T12:18:50;102033.66;;;6.51;91.70
8101;BME280;4093;53.470;9.832;2023-01-29T12:21:25;102027.53;;;6.88;89.57
8101;BME280;4093;53.470;9.832;2023-01-29T12:23:59;102020.94;;;6.56;90.37
8101;BME280;4093;53.470;9.832;2023-01-29T12:26:30;102009.91;;;6.61;89.86
8101;BME280;4093;53.470;9.832;2023-01-29T12:29:12;102001.66;;;6.35;90.93
8101;BME280;4093;53.470;9.832;2023-01-29T12:31:49;102005.97;;;6.80;89.76
8101;BME280;4093;53.470;9.832;2023-01-29T12:34:23;101996.16;;;6.17;91.90
8101;BME280;4093;53.470;9.832;2023-01-29T12:36:55;101995.84;;;6.44;90.69
8101;BME280;4093;53.470;9.832;2023-01-29T12:39:25;101993.47;;;6.53;92.03
8101;BME280;4093;53.470;9.832;2023-01-29T12:41:57;101981.84;;;6.30;92.14
8101;BME280;4093;53.470;9.832;2023-01-29T12:44:31;101973.69;;;6.96;90.92
8101;BME280;4093;53.470;9.832;2023-01-29T12:47:05;101975.78;;;6.68;91.41
8101;BME280;4093;53.470;9.832;2023-01-29T12:49:36;101970.56;;;6.65;91.83
8101;BME280;4093;53.470;9.832;2023-01-29T12:52:09;101937.63;;;6.44;91.82
8101;BME280;4093;53.470;9.832;2023-01-29T12:54:41;101953.31;;;6.58;90.55
8101;BME280;4093;53.470;9.832;2023-01-29T12:57:18;101944.41;;;6.41;91.76
8101;BME280;4093;53.470;9.832;2023-01-29T12:59:51;101939.94;;;6.31;90.93
8101;BME280;4093;53.470;9.832;2023-01-29T13:02:30;101935.06;;;6.44;91.42
8101;BME280;4093;53.470;9.832;2023-01-29T13:05:02;101936.19;;;6.59;90.62
8101;BME280;4093;53.470;9.832;2023-01-29T13:07:32;101918.22;;;6.59;90.11
8101;BME280;4093;53.470;9.832;2023-01-29T13:10:08;101923.25;;;7.03;90.50
8101;BME280;4093;53.470;9.832;2023-01-29T13:12:39;101920.41;;;6.87;90.84
8101;BME280;4093;53.470;9.832;2023-01-29T13:15:20;101910.06;;;6.84;89.77
8101;BME280;4093;53.470;9.832;2023-01-29T13:17:54;101913.78;;;7.02;88.00
8101;BME280;4093;53.470;9.832;2023-01-29T13:20:27;101901.44;;;6.32;90.06
8101;BME280;4093;53.470;9.832;2023-01-29T13:22:59;101894.44;;;6.72;88.72
8101;BME280;4093;53.470;9.832;2023-01-29T13:25:29;101905.75;;;6.82;88.67
8101;BME280;4093;53.470;9.832;2023-01-29T13:27:57;101896.91;;;6.64;89.66
8101;BME280;4093;53.470;9.832;2023-01-29T13:30:27;101899.09;;;6.43;90.66
8101;BME280;4093;53.470;9.832;2023-01-29T13:32:59;101898.13;;;6.88;88.60
8101;BME280;4093;53.470;9.832;2023-01-29T13:35:38;101898.72;;;6.71;89.82
8101;BME280;4093;53.470;9.832;2023-01-29T13:38:21;101891.72;;;6.61;88.70
8101;BME280;4093;53.470;9.832;2023-01-29T13:40:50;101892.00;;;6.80;87.77
8101;BME280;4093;53.470;9.832;2023-01-29T13:43:19;101894.66;;;6.84;88.25
8101;BME280;4093;53.470;9.832;2023-01-29T13:45:50;101861.69;;;6.60;88.71
8101;BME280;4093;53.470;9.832;2023-01-29T13:48:24;101882.56;;;6.79;88.22
8101;BME280;4093;53.470;9.832;2023-01-29T13:50:54;101884.66;;;7.03;88.58
8101;BME280;4093;53.470;9.832;2023-01-29T13:53:24;101871.88;;;7.07;86.36